createdAt,value
2019-05-02T00:00:53.040Z,99470.38
2019-05-02T00:03:19.967Z,99475.22
2019-05-02T00:05:46.064Z,99480.06
2019-05-02T00:08:12.195Z,99478.36
2019-05-02T00:10:38.379Z,99482.55
2019-05-02T00:13:04.658Z,99477.73
2019-05-02T00:15:33.122Z,99477.59
2019-05-02T00:18:01.418Z,99472.48
2019-05-02T00:20:27.163Z,99474.10
2019-05-02T00:22:53.460Z,99470.67
2019-05-02T00:25:19.565Z,99475.06
2019-05-02T00:27:45.735Z,99469.53
2019-05-02T00:30:12.836Z,99472.48
2019-05-02T00:32:38.803Z,99470.44
2019-05-02T00:35:05.270Z,99471.23
2019-05-02T00:37:31.115Z,99473.27
2019-05-02T00:39:57.194Z,99471.57
2019-05-02T00:42:24.116Z,99471.17
2019-05-02T00:44:50.197Z,99462.09
2019-05-02T00:47:20.674Z,99466.86
2019-05-02T00:49:47.336Z,99461.08
2019-05-02T00:52:13.382Z,99455.04
2019-05-02T00:54:39.210Z,99457.35
2019-05-02T00:57:05.036Z,99457.44
2019-05-02T00:59:30.952Z,99457.92
2019-05-02T01:02:00.019Z,99454.58
2019-05-02T01:04:29.081Z,99452.44
2019-05-02T01:06:55.469Z,99454.47
2019-05-02T01:09:21.502Z,99456.94
2019-05-02T01:11:47.546Z,99451.48
2019-05-02T01:14:13.527Z,99449.37
2019-05-02T01:16:39.406Z,99448.97
2019-05-02T01:19:05.366Z,99448.45
2019-05-02T01:21:34.039Z,99447.30
2019-05-02T01:24:03.022Z,99446.12
2019-05-02T01:26:29.459Z,99444.39
2019-05-02T01:28:58.377Z,99445.97
2019-05-02T01:31:29.293Z,99444.71
2019-05-02T01:34:02.940Z,99443.13
2019-05-02T01:36:42.929Z,99448.78
2019-05-02T01:39:10.748Z,99441.12
2019-05-02T01:41:36.831Z,99446.86
2019-05-02T01:44:03.393Z,99447.97
2019-05-02T01:46:29.282Z,99450.73
2019-05-02T01:48:55.227Z,99452.06
2019-05-02T01:51:21.085Z,99451.44
2019-05-02T01:53:47.012Z,99451.03
2019-05-02T01:56:13.064Z,99452.99
2019-05-02T01:58:39.231Z,99447.30
2019-05-02T02:01:05.398Z,99454.02
2019-05-02T02:03:31.421Z,99459.52
2019-05-02T02:05:57.328Z,99458.30
2019-05-02T02:08:27.266Z,99461.58
2019-05-02T02:10:56.474Z,99466.69
2019-05-02T02:13:19.348Z,99465.32
2019-05-02T02:15:45.329Z,99467.22
2019-05-02T02:18:12.589Z,99461.67
2019-05-02T02:20:57.131Z,99469.70
2019-05-02T02:23:25.085Z,99471.59
2019-05-02T02:25:58.747Z,99470.73
2019-05-02T02:28:24.624Z,99478.61
2019-05-02T02:30:50.572Z,99473.94
2019-05-02T02:33:16.675Z,99475.58
2019-05-02T02:35:49.621Z,99473.53
2019-05-02T02:38:10.587Z,99474.17
2019-05-02T02:40:36.497Z,99468.22
2019-05-02T02:43:12.822Z,99464.32
2019-05-02T02:45:51.956Z,99465.66
2019-05-02T02:48:15.427Z,99464.94
2019-05-02T02:50:43.227Z,99460.41
2019-05-02T02:53:09.270Z,99458.91
2019-05-02T02:55:35.109Z,99457.74
2019-05-02T02:58:04.689Z,99456.88
2019-05-02T03:00:29.024Z,99453.19
2019-05-02T03:02:54.970Z,99449.20
2019-05-02T03:05:25.897Z,99453.88
2019-05-02T03:07:49.175Z,99453.71
2019-05-02T03:10:15.116Z,99451.19
2019-05-02T03:12:43.283Z,99451.56
2019-05-02T03:15:20.845Z,99448.88
2019-05-02T03:17:45.451Z,99452.33
2019-05-02T03:20:11.511Z,99455.70
2019-05-02T03:22:41.917Z,99453.28
2019-05-02T03:25:05.558Z,99456.55
2019-05-02T03:27:37.999Z,99454.35
2019-05-02T03:29:59.487Z,99449.48
2019-05-02T03:32:33.412Z,99450.20
2019-05-02T03:34:54.301Z,99448.02
2019-05-02T03:37:20.541Z,99441.31
2019-05-02T03:39:49.456Z,99449.22
2019-05-02T03:42:14.444Z,99447.47
2019-05-02T03:44:40.485Z,99451.53
2019-05-02T03:47:06.740Z,99447.72
2019-05-02T03:49:32.830Z,99445.33
2019-05-02T03:52:03.028Z,99446.39
2019-05-02T03:54:31.841Z,99442.41
2019-05-02T03:56:57.993Z,99441.25
2019-05-02T03:59:37.235Z,99447.31
2019-05-02T04:01:52.754Z,99449.86
2019-05-02T04:04:20.621Z,99443.22
2019-05-02T04:06:46.579Z,99439.33
2019-05-02T04:09:39.083Z,99451.72
2019-05-02T04:12:02.607Z,99451.34
2019-05-02T04:14:37.672Z,99453.22
2019-05-02T04:16:57.654Z,99459.14
2019-05-02T04:19:28.715Z,99456.05
2019-05-02T04:21:54.985Z,99463.41
2019-05-02T04:24:22.410Z,99458.17
2019-05-02T04:26:53.655Z,99465.52
2019-05-02T04:29:17.788Z,99474.33
2019-05-02T04:31:43.921Z,99469.05
2019-05-02T04:34:15.136Z,99468.13
2019-05-02T04:36:37.849Z,99466.56
2019-05-02T04:39:05.987Z,99466.67
2019-05-02T04:41:34.299Z,99466.15
2019-05-02T04:44:01.585Z,99466.08
2019-05-02T04:46:31.211Z,99466.48
2019-05-02T04:48:58.769Z,99468.36
2019-05-02T04:51:27.443Z,99472.06
2019-05-02T04:53:51.824Z,99477.78
2019-05-02T04:56:18.672Z,99476.83
2019-05-02T04:58:44.687Z,99474.36
2019-05-02T05:01:10.759Z,99478.67
2019-05-02T05:03:37.628Z,99488.45
2019-05-02T05:06:08.013Z,99488.34
2019-05-02T05:08:32.123Z,99490.08
2019-05-02T05:10:58.355Z,99496.59
2019-05-02T05:13:26.488Z,99503.84
2019-05-02T05:15:52.224Z,99503.30
2019-05-02T05:18:18.154Z,99506.68
2019-05-02T05:20:45.929Z,99505.87
2019-05-02T05:23:15.691Z,99513.67
2019-05-02T05:25:43.384Z,99513.30
2019-05-02T05:28:09.377Z,99516.71
2019-05-02T05:30:37.666Z,99519.61
2019-05-02T05:33:03.513Z,99516.03
2019-05-02T05:35:29.551Z,99515.17
2019-05-02T05:37:57.251Z,99517.36
2019-05-02T05:40:30.334Z,99520.25
2019-05-02T05:42:51.065Z,99526.52
2019-05-02T05:45:17.452Z,99529.98
2019-05-02T05:47:43.379Z,99532.17
2019-05-02T05:50:10.021Z,99533.45
2019-05-02T05:52:38.842Z,99534.08
2019-05-02T05:55:05.191Z,99540.14
2019-05-02T05:57:31.164Z,99540.76
2019-05-02T05:59:58.422Z,99538.79
2019-05-02T06:02:24.631Z,99545.22
2019-05-02T06:04:55.186Z,99543.70
2019-05-02T06:07:20.174Z,99546.70
2019-05-02T06:09:46.125Z,99545.81
2019-05-02T06:12:12.047Z,99545.41
2019-05-02T06:14:38.189Z,99552.95
2019-05-02T06:17:04.290Z,99554.98
2019-05-02T06:19:30.240Z,99555.36
2019-05-02T06:21:56.271Z,99556.90
2019-05-02T06:24:22.142Z,99543.81
2019-05-02T06:26:49.919Z,99548.34
2019-05-02T06:29:18.705Z,99551.70
2019-05-02T06:31:44.467Z,99552.70
2019-05-02T06:34:10.452Z,99548.50
2019-05-02T06:36:38.015Z,99545.48
2019-05-02T06:39:05.376Z,99554.74
2019-05-02T06:41:31.354Z,99550.54
2019-05-02T06:43:57.229Z,99545.98
2019-05-02T06:46:27.828Z,99546.84
2019-05-02T06:48:52.258Z,99546.27
2019-05-02T06:51:20.850Z,99545.91
2019-05-02T06:53:46.953Z,99548.81
2019-05-02T06:56:14.298Z,99544.09
2019-05-02T06:58:42.084Z,99542.19
2019-05-02T07:01:08.170Z,99543.63
2019-05-02T07:03:33.989Z,99541.13
2019-05-02T07:06:02.855Z,99541.23
2019-05-02T07:08:27.959Z,99527.72
2019-05-02T07:10:55.986Z,99534.19
2019-05-02T07:13:21.986Z,99537.73
2019-05-02T07:16:02.100Z,99529.47
2019-05-02T07:18:29.930Z,99529.45
2019-05-02T07:20:55.875Z,99531.28
2019-05-02T07:23:21.774Z,99526.90
2019-05-02T07:25:47.833Z,99527.56
2019-05-02T07:28:13.670Z,99530.33
2019-05-02T07:30:39.625Z,99527.17
2019-05-02T07:33:05.485Z,99525.48
2019-05-02T07:35:31.442Z,99520.02
2019-05-02T07:37:57.387Z,99522.02
2019-05-02T07:40:23.520Z,99520.11
2019-05-02T07:42:49.563Z,99518.47
2019-05-02T07:45:15.589Z,99524.02
2019-05-02T07:47:42.470Z,99519.40
2019-05-02T07:50:11.811Z,99516.55
2019-05-02T07:52:40.945Z,99513.20
2019-05-02T07:55:07.392Z,99510.20
2019-05-02T07:57:34.001Z,99511.94
2019-05-02T08:00:02.445Z,99515.81
2019-05-02T08:02:27.853Z,99520.81
2019-05-02T08:04:53.897Z,99514.96
2019-05-02T08:07:21.249Z,99514.70
2019-05-02T08:09:47.666Z,99506.16
2019-05-02T08:12:13.730Z,99512.02
2019-05-02T08:14:39.627Z,99505.30
2019-05-02T08:17:10.592Z,99502.20
2019-05-02T08:19:37.549Z,99501.88
2019-05-02T08:22:04.666Z,99502.50
2019-05-02T08:24:33.051Z,99498.81
2019-05-02T08:27:05.011Z,99500.70
2019-05-02T08:29:30.937Z,99498.52
2019-05-02T08:31:56.937Z,99496.80
2019-05-02T08:34:30.426Z,99492.16
2019-05-02T08:36:58.862Z,99497.73
2019-05-02T08:39:25.972Z,99495.11
2019-05-02T08:41:56.430Z,99493.03
2019-05-02T08:44:21.742Z,99493.20
2019-05-02T08:46:51.422Z,99492.09
2019-05-02T08:49:18.806Z,99494.31
2019-05-02T08:51:43.731Z,99488.13
2019-05-02T08:54:09.811Z,99489.91
2019-05-02T08:56:35.892Z,99496.31
2019-05-02T08:59:01.924Z,99496.11
2019-05-02T09:01:35.004Z,99489.56
2019-05-02T09:03:57.053Z,99493.17
2019-05-02T09:06:24.188Z,99492.84
2019-05-02T09:08:51.357Z,99500.37
2019-05-02T09:11:18.205Z,99496.25
2019-05-02T09:13:46.014Z,99499.86
2019-05-02T09:16:12.137Z,99494.56
2019-05-02T09:18:45.883Z,99502.71
2019-05-02T09:21:05.986Z,99496.47
2019-05-02T09:23:33.155Z,99496.90
2019-05-02T09:25:59.791Z,99491.19
2019-05-02T09:28:25.729Z,99487.80
2019-05-02T09:30:52.413Z,99485.44
2019-05-02T09:33:18.518Z,99485.44
2019-05-02T09:35:44.485Z,99479.56
2019-05-02T09:38:12.489Z,99483.18
2019-05-02T09:40:38.036Z,99474.72
2019-05-02T09:43:04.817Z,99475.76
2019-05-02T09:45:37.207Z,99471.23
2019-05-02T09:48:05.235Z,99467.70
2019-05-02T09:50:31.428Z,99463.59
2019-05-02T09:52:56.475Z,99462.42
2019-05-02T09:55:22.744Z,99458.55
2019-05-02T09:57:48.686Z,99468.89
2019-05-02T10:00:19.579Z,99458.89
2019-05-02T10:02:45.663Z,99458.55
2019-05-02T10:05:12.701Z,99460.30
2019-05-02T10:07:38.559Z,99452.45
2019-05-02T10:10:06.959Z,99449.36
2019-05-02T10:12:32.795Z,99456.91
2019-05-02T10:14:58.668Z,99446.58
2019-05-02T10:17:25.330Z,99444.76
2019-05-02T10:19:56.762Z,99433.06
2019-05-02T10:22:20.200Z,99431.50
2019-05-02T10:24:46.218Z,99430.25
2019-05-02T10:27:12.635Z,99426.86
2019-05-02T10:29:38.637Z,99431.41
2019-05-02T10:32:07.700Z,99428.72
2019-05-02T10:34:33.023Z,99426.88
2019-05-02T10:37:00.399Z,99427.38
2019-05-02T10:39:28.496Z,99429.59
2019-05-02T10:41:57.441Z,99424.34
2019-05-02T10:44:22.709Z,99433.38
2019-05-02T10:46:58.658Z,99423.95
2019-05-02T10:49:34.524Z,99435.09
2019-05-02T10:52:02.507Z,99430.45
2019-05-02T10:54:33.685Z,99436.67
2019-05-02T10:56:56.000Z,99426.19
2019-05-02T10:59:22.155Z,99429.18
2019-05-02T11:01:53.102Z,99414.98
2019-05-02T11:04:18.997Z,99408.47
2019-05-02T11:06:46.270Z,99412.03
2019-05-02T11:09:16.720Z,99411.19
2019-05-02T11:11:42.532Z,99415.60
2019-05-02T11:14:19.455Z,99404.96
2019-05-02T11:16:52.284Z,99398.96
2019-05-02T11:19:25.793Z,99391.63
2019-05-02T11:21:56.301Z,99393.90
2019-05-02T11:24:19.448Z,99385.19
2019-05-02T11:26:45.457Z,99390.73
2019-05-02T11:29:12.144Z,99389.09
2019-05-02T11:31:38.180Z,99381.09
2019-05-02T11:34:04.270Z,99386.41
2019-05-02T11:36:30.123Z,99383.50
2019-05-02T11:39:05.101Z,99383.42
2019-05-02T11:41:24.066Z,99378.70
2019-05-02T11:43:52.448Z,99372.77
2019-05-02T11:46:18.335Z,99375.36
2019-05-02T11:48:55.591Z,99375.52
2019-05-02T11:51:16.236Z,99391.72
2019-05-02T11:53:41.958Z,99376.89
2019-05-02T11:56:10.662Z,99370.28
2019-05-02T11:58:35.430Z,99364.47
2019-05-02T12:01:05.081Z,99372.77
2019-05-02T12:03:40.011Z,99365.77
2019-05-02T12:06:06.642Z,99362.59
2019-05-02T12:08:33.857Z,99354.98
2019-05-02T12:11:01.232Z,99352.44
2019-05-02T12:13:27.582Z,99345.83
2019-05-02T12:15:53.561Z,99346.83
2019-05-02T12:18:21.164Z,99342.64
2019-05-02T12:20:47.831Z,99336.09
2019-05-02T12:23:13.772Z,99315.87
2019-05-02T12:25:39.742Z,99320.98
2019-05-02T12:28:05.830Z,99328.48
2019-05-02T12:30:34.085Z,99336.59
2019-05-02T12:32:59.613Z,99335.87
2019-05-02T12:35:25.918Z,99329.02
2019-05-02T12:37:55.154Z,99321.63
2019-05-02T12:40:21.622Z,99320.27
2019-05-02T12:42:47.564Z,99314.66
2019-05-02T12:45:13.892Z,99308.78
2019-05-02T12:47:39.962Z,99308.66
2019-05-02T12:50:06.195Z,99307.05
2019-05-02T12:52:32.154Z,99302.25
2019-05-02T12:54:58.031Z,99296.42
2019-05-02T12:57:23.956Z,99296.74
2019-05-02T12:59:49.819Z,99291.58
2019-05-02T13:02:17.728Z,99283.73
2019-05-02T13:04:43.807Z,99281.61
2019-05-02T13:07:09.760Z,99279.11
2019-05-02T13:09:35.667Z,99275.69
2019-05-02T13:12:03.724Z,99272.31
2019-05-02T13:14:31.905Z,99273.31
2019-05-02T13:17:01.200Z,99273.40
2019-05-02T13:19:37.228Z,99261.19
2019-05-02T13:22:12.617Z,99256.59
2019-05-02T13:24:42.229Z,99249.34
2019-05-02T13:27:13.137Z,99252.02
2019-05-02T13:29:39.226Z,99240.11
2019-05-02T13:32:16.933Z,99236.08
2019-05-02T13:34:44.009Z,99232.36
2019-05-02T13:37:12.399Z,99236.05
2019-05-02T13:39:41.925Z,99241.34
2019-05-02T13:42:08.191Z,99226.59
2019-05-02T13:44:52.795Z,99230.48
2019-05-02T13:47:21.835Z,99226.80
2019-05-02T13:49:53.821Z,99230.56
2019-05-02T13:52:15.874Z,99219.34
2019-05-02T13:54:42.653Z,99221.73
2019-05-02T13:57:08.713Z,99216.93
2019-05-02T13:59:34.835Z,99213.23
2019-05-02T14:02:02.712Z,99216.77
2019-05-02T14:04:28.915Z,99206.91
2019-05-02T14:06:54.763Z,99205.38
2019-05-02T14:09:32.381Z,99201.98
2019-05-02T14:12:18.687Z,99192.34
2019-05-02T14:14:44.755Z,99188.03
2019-05-02T14:17:11.729Z,99186.41
2019-05-02T14:19:37.671Z,99183.52
2019-05-02T14:22:03.662Z,99190.91
2019-05-02T14:24:29.742Z,99184.08
2019-05-02T14:26:55.567Z,99184.02
2019-05-02T14:29:21.829Z,99180.22
2019-05-02T14:31:47.867Z,99174.06
2019-05-02T14:34:33.823Z,99174.22
2019-05-02T14:37:01.945Z,99162.01
2019-05-02T14:39:27.745Z,99156.64
2019-05-02T14:41:53.707Z,99159.31
2019-05-02T14:44:25.228Z,99158.34
2019-05-02T14:46:47.537Z,99153.48
2019-05-02T14:49:16.675Z,99146.05
2019-05-02T14:51:41.759Z,99147.78
2019-05-02T14:54:08.573Z,99151.92
2019-05-02T14:56:53.445Z,99154.48
2019-05-02T14:59:20.333Z,99151.78
2019-05-02T15:01:49.597Z,99145.24
2019-05-02T15:04:15.694Z,99149.69
2019-05-02T15:06:45.372Z,99160.33
2019-05-02T15:09:11.942Z,99146.29
2019-05-02T15:11:39.305Z,99152.66
2019-05-02T15:14:05.379Z,99147.17
2019-05-02T15:16:40.506Z,99143.20
2019-05-02T15:18:59.672Z,99142.86
2019-05-02T15:21:27.434Z,99145.50
2019-05-02T15:23:57.635Z,99147.34
2019-05-02T15:26:21.352Z,99146.56
2019-05-02T15:28:47.287Z,99134.47
2019-05-02T15:31:19.069Z,99140.59
2019-05-02T15:34:05.809Z,99142.85
2019-05-02T15:36:32.368Z,99141.44
2019-05-02T15:41:26.402Z,99138.14
2019-05-02T15:43:52.495Z,99140.15
2019-05-02T15:46:23.874Z,99150.30
2019-05-02T15:48:46.153Z,99144.12
2019-05-02T15:51:12.460Z,99132.03
2019-05-02T15:54:04.820Z,99145.06
2019-05-02T15:56:24.369Z,99140.44
2019-05-02T15:58:52.224Z,99139.30
2019-05-02T16:01:26.075Z,99142.25
2019-05-02T16:03:53.866Z,99141.23
2019-05-02T16:06:24.294Z,99140.83
2019-05-02T16:08:47.914Z,99139.63
2019-05-02T16:11:17.038Z,99135.05
2019-05-02T16:13:47.077Z,99129.88
2019-05-02T16:16:11.000Z,99130.58
2019-05-02T16:18:41.097Z,99125.08
2019-05-02T16:21:18.427Z,99114.33
2019-05-02T16:24:10.912Z,99111.33
2019-05-02T16:26:29.860Z,99111.39
2019-05-02T16:28:55.746Z,99109.69
2019-05-02T16:31:25.222Z,99105.62
2019-05-02T16:33:49.874Z,99097.17
2019-05-02T16:36:15.767Z,99103.66
2019-05-02T16:38:42.463Z,99101.49
2019-05-02T16:41:10.179Z,99104.31
2019-05-02T16:43:36.662Z,99097.42
2019-05-02T16:46:06.631Z,99089.51
2019-05-02T16:48:37.422Z,99087.17
2019-05-02T16:50:58.478Z,99094.98
2019-05-02T16:53:26.161Z,99093.37
2019-05-02T16:55:53.712Z,99088.69
2019-05-02T16:58:19.744Z,99083.51
2019-05-02T17:00:46.015Z,99080.05
2019-05-02T17:03:12.662Z,99071.21
2019-05-02T17:05:39.311Z,99070.65
2019-05-02T17:08:18.918Z,99076.83
2019-05-02T17:10:47.210Z,99076.36
2019-05-02T17:13:14.256Z,99067.36
2019-05-02T17:15:42.707Z,99074.95
2019-05-02T17:18:13.420Z,99074.33
2019-05-02T17:20:36.633Z,99085.78
2019-05-02T17:23:07.265Z,99097.08
2019-05-02T17:25:32.206Z,99117.44
2019-05-02T17:28:02.466Z,99125.89
2019-05-02T17:30:26.292Z,99121.95
2019-05-02T17:32:52.289Z,99134.61
2019-05-02T17:35:19.313Z,99140.47
2019-05-02T17:37:48.807Z,99138.91
2019-05-02T17:40:16.922Z,99144.98
2019-05-02T17:42:43.235Z,99135.68
2019-05-02T17:45:09.874Z,99135.64
2019-05-02T17:47:36.515Z,99108.00
2019-05-02T17:50:15.535Z,99118.45
2019-05-02T17:52:37.601Z,99138.24
2019-05-02T17:55:05.056Z,99132.54
2019-05-02T17:57:33.499Z,99139.04
2019-05-02T17:59:58.769Z,99156.75
2019-05-02T18:02:24.691Z,99157.20
2019-05-02T18:04:52.032Z,99158.54
2019-05-02T18:07:18.331Z,99154.12
2019-05-02T18:09:44.279Z,99158.39
2019-05-02T18:12:12.735Z,99155.83
2019-05-02T18:14:38.193Z,99153.51
2019-05-02T18:17:04.275Z,99162.84
2019-05-02T18:19:31.631Z,99163.89
2019-05-02T18:21:58.241Z,99161.75
2019-05-02T18:24:25.562Z,99163.59
2019-05-02T18:26:51.741Z,99168.03
2019-05-02T18:29:17.896Z,99169.51
2019-05-02T18:31:47.401Z,99170.18
2019-05-02T18:34:14.263Z,99173.31
2019-05-02T18:36:41.628Z,99176.06
2019-05-02T18:39:07.602Z,99180.92
2019-05-02T18:41:37.281Z,99179.61
2019-05-02T18:44:02.830Z,99176.55
2019-05-02T18:46:28.902Z,99180.28
2019-05-02T18:48:54.914Z,99184.47
2019-05-02T18:51:21.845Z,99188.06
2019-05-02T18:53:48.082Z,99180.32
2019-05-02T18:56:14.059Z,99177.86
2019-05-02T18:58:41.556Z,99168.06
2019-05-02T19:01:12.961Z,99183.10
2019-05-02T19:03:36.099Z,99179.47
2019-05-02T19:06:03.235Z,99180.18
2019-05-02T19:08:45.260Z,99176.06
2019-05-02T19:11:10.026Z,99184.41
2019-05-02T19:13:32.150Z,99188.42
2019-05-02T19:15:56.760Z,99191.80
2019-05-02T19:18:22.759Z,99190.21
2019-05-02T19:20:57.163Z,99190.92
2019-05-02T19:23:22.482Z,99193.41
2019-05-02T19:25:48.328Z,99187.16
2019-05-02T19:28:16.442Z,99184.84
2019-05-02T19:30:42.593Z,99194.05
2019-05-02T19:33:11.998Z,99196.73
2019-05-02T19:35:43.130Z,99193.16
2019-05-02T19:38:05.728Z,99191.14
2019-05-02T19:40:31.899Z,99191.83
2019-05-02T19:43:05.911Z,99183.58
2019-05-02T19:45:25.659Z,99191.85
2019-05-02T19:47:54.283Z,99197.69
2019-05-02T19:50:32.250Z,99200.36
2019-05-02T19:53:01.998Z,99196.45
2019-05-02T19:55:27.467Z,99192.13
2019-05-02T19:57:56.697Z,99191.33
2019-05-02T20:00:21.839Z,99195.11
2019-05-02T20:02:47.819Z,99200.72
2019-05-02T20:05:16.462Z,99196.81
2019-05-02T20:07:42.723Z,99194.00
2019-05-02T20:10:09.331Z,99189.38
2019-05-02T20:12:35.340Z,99187.00
2019-05-02T20:15:01.628Z,99187.59
2019-05-02T20:17:27.686Z,99188.74
2019-05-02T20:19:57.890Z,99185.27
2019-05-02T20:22:23.608Z,99193.94
2019-05-02T20:24:58.300Z,99197.45
2019-05-02T20:27:22.436Z,99187.95
2019-05-02T20:29:48.673Z,99188.03
2019-05-02T20:32:14.617Z,99186.86
2019-05-02T20:34:41.873Z,99187.84
2019-05-02T20:37:07.990Z,99185.27
2019-05-02T20:39:33.981Z,99186.95
2019-05-02T20:41:59.979Z,99187.20
2019-05-02T20:44:25.845Z,99185.22
2019-05-02T20:46:51.807Z,99191.25
2019-05-02T20:49:17.687Z,99191.84
2019-05-02T20:51:43.765Z,99192.31
2019-05-02T20:54:09.790Z,99183.45
2019-05-02T20:56:35.833Z,99188.11
2019-05-02T20:59:02.120Z,99185.01
2019-05-02T21:01:28.110Z,99189.80
2019-05-02T21:03:54.106Z,99187.03
2019-05-02T21:06:37.590Z,99191.89
2019-05-02T21:08:54.882Z,99187.78
2019-05-02T21:11:22.289Z,99192.23
2019-05-02T21:13:48.254Z,99192.13
2019-05-02T21:16:14.210Z,99186.89
2019-05-02T21:18:42.101Z,99192.67
2019-05-02T21:21:08.053Z,99190.78
2019-05-02T21:23:43.843Z,99191.31
2019-05-02T21:26:02.021Z,99190.11
2019-05-02T21:28:28.043Z,99185.32
2019-05-02T21:30:54.124Z,99198.78
2019-05-02T21:33:31.927Z,99195.33
2019-05-02T21:35:57.735Z,99193.83
2019-05-02T21:38:23.589Z,99192.42
2019-05-02T21:40:49.423Z,99188.69
2019-05-02T21:43:15.358Z,99195.78
2019-05-02T21:45:42.205Z,99192.39
2019-05-02T21:48:08.199Z,99197.34
2019-05-02T21:50:38.830Z,99201.63
2019-05-02T21:53:06.578Z,99200.66
2019-05-02T21:55:37.619Z,99200.08
2019-05-02T21:58:03.881Z,99206.98
2019-05-02T22:00:50.290Z,99199.81
2019-05-02T22:03:16.529Z,99200.00
2019-05-02T22:05:43.403Z,99198.22
2019-05-02T22:08:09.596Z,99197.75
2019-05-02T22:10:35.597Z,99191.44
2019-05-02T22:13:02.129Z,99199.16
2019-05-02T22:15:28.142Z,99195.32
2019-05-02T22:17:54.108Z,99199.48
2019-05-02T22:20:20.156Z,99194.52
2019-05-02T22:22:46.093Z,99200.77
2019-05-02T22:25:12.318Z,99203.11
2019-05-02T22:27:38.249Z,99197.68
2019-05-02T22:30:05.779Z,99197.09
2019-05-02T22:32:32.183Z,99203.86
2019-05-02T22:34:58.126Z,99199.50
2019-05-02T22:37:25.151Z,99201.20
2019-05-02T22:39:55.920Z,99205.78
2019-05-02T22:42:22.038Z,99202.45
2019-05-02T22:44:48.134Z,99201.33
2019-05-02T22:47:14.224Z,99205.03
2019-05-02T22:49:40.054Z,99210.77
2019-05-02T22:52:06.100Z,99212.77
2019-05-02T22:54:33.926Z,99215.34
2019-05-02T22:56:59.862Z,99221.52
2019-05-02T22:59:26.752Z,99222.05
2019-05-02T23:01:52.915Z,99230.09
2019-05-02T23:04:18.739Z,99221.73
2019-05-02T23:06:45.244Z,99227.35
2019-05-02T23:09:12.704Z,99220.41
2019-05-02T23:11:38.883Z,99225.00
2019-05-02T23:14:04.982Z,99213.49
2019-05-02T23:16:32.256Z,99217.14
2019-05-02T23:18:59.947Z,99211.06
2019-05-02T23:21:26.027Z,99212.09
2019-05-02T23:23:52.344Z,99207.43
2019-05-02T23:26:29.147Z,99208.59
2019-05-02T23:28:59.631Z,99204.78
2019-05-02T23:31:25.588Z,99204.97
2019-05-02T23:33:57.618Z,99206.12
2019-05-02T23:36:25.078Z,99198.70
2019-05-02T23:38:52.206Z,99196.59
2019-05-02T23:41:18.330Z,99200.97
2019-05-02T23:43:44.380Z,99203.55
2019-05-02T23:46:11.631Z,99210.30
2019-05-02T23:48:37.649Z,99206.53
2019-05-02T23:51:03.682Z,99197.85
2019-05-02T23:53:31.477Z,99196.14
2019-05-02T23:55:57.276Z,99192.55
2019-05-02T23:58:23.248Z,99195.47
